sensor_id;sensor_type;location;lat;lon;timestamp;temperature;humidity
10121;DHT22;5100;45.176;5.714;2023-04-15T00:01:29;14.50;72.70
10121;DHT22;5100;45.176;5.714;2023-04-15T00:03:59;14.50;72.70
10121;DHT22;5100;45.176;5.714;2023-04-15T00:06:25;14.50;72.80
10121;DHT22;5100;45.176;5.714;2023-04-15T00:08:51;14.50;72.90
10121;DHT22;5100;45.176;5.714;2023-04-15T00:11:18;14.50;72.90
10121;DHT22;5100;45.176;5.714;2023-04-15T00:13:45;14.40;72.90
10121;DHT22;5100;45.176;5.714;2023-04-15T00:16:11;14.40;72.70
10121;DHT22;5100;45.176;5.714;2023-04-15T00:18:38;14.40;72.50
10121;DHT22;5100;45.176;5.714;2023-04-15T00:21:04;14.40;72.50
10121;DHT22;5100;45.176;5.714;2023-04-15T00:23:30;14.40;72.50
10121;DHT22;5100;45.176;5.714;2023-04-15T00:25:57;14.40;72.50
10121;DHT22;5100;45.176;5.714;2023-04-15T00:28:23;14.40;72.50
10121;DHT22;5100;45.176;5.714;2023-04-15T00:30:52;14.40;72.50
10121;DHT22;5100;45.176;5.714;2023-04-15T00:33:21;14.40;72.50
10121;DHT22;5100;45.176;5.714;2023-04-15T00:35:48;14.40;72.60
10121;DHT22;5100;45.176;5.714;2023-04-15T00:38:14;14.40;72.60
10121;DHT22;5100;45.176;5.714;2023-04-15T00:40:42;14.40;72.70
10121;DHT22;5100;45.176;5.714;2023-04-15T00:43:08;14.30;72.70
10121;DHT22;5100;45.176;5.714;2023-04-15T00:45:34;14.30;73.00
10121;DHT22;5100;45.176;5.714;2023-04-15T00:48:00;14.30;73.10
10121;DHT22;5100;45.176;5.714;2023-04-15T00:50:27;14.30;73.30
10121;DHT22;5100;45.176;5.714;2023-04-15T00:52:53;14.30;73.30
10121;DHT22;5100;45.176;5.714;2023-04-15T00:55:20;14.30;73.40
10121;DHT22;5100;45.176;5.714;2023-04-15T00:57:46;14.30;73.40
10121;DHT22;5100;45.176;5.714;2023-04-15T01:00:12;14.30;73.40
10121;DHT22;5100;45.176;5.714;2023-04-15T01:02:39;14.30;73.20
10121;DHT22;5100;45.176;5.714;2023-04-15T01:05:05;14.30;73.00
10121;DHT22;5100;45.176;5.714;2023-04-15T01:07:33;14.30;73.00
10121;DHT22;5100;45.176;5.714;2023-04-15T01:09:59;14.30;73.00
10121;DHT22;5100;45.176;5.714;2023-04-15T01:12:26;14.30;73.10
10121;DHT22;5100;45.176;5.714;2023-04-15T01:14:53;14.30;73.20
10121;DHT22;5100;45.176;5.714;2023-04-15T01:17:20;14.30;73.30
10121;DHT22;5100;45.176;5.714;2023-04-15T01:19:46;14.30;73.30
10121;DHT22;5100;45.176;5.714;2023-04-15T01:22:13;14.30;73.10
10121;DHT22;5100;45.176;5.714;2023-04-15T01:24:40;14.30;73.20
10121;DHT22;5100;45.176;5.714;2023-04-15T01:27:06;14.30;73.30
10121;DHT22;5100;45.176;5.714;2023-04-15T01:29:34;14.30;73.20
10121;DHT22;5100;45.176;5.714;2023-04-15T01:32:01;14.30;73.20
10121;DHT22;5100;45.176;5.714;2023-04-15T01:34:27;14.30;73.20
10121;DHT22;5100;45.176;5.714;2023-04-15T01:36:53;14.30;73.20
10121;DHT22;5100;45.176;5.714;2023-04-15T01:39:20;14.30;73.10
10121;DHT22;5100;45.176;5.714;2023-04-15T01:41:46;14.30;73.30
10121;DHT22;5100;45.176;5.714;2023-04-15T01:44:15;14.30;73.40
10121;DHT22;5100;45.176;5.714;2023-04-15T01:46:42;14.30;73.50
10121;DHT22;5100;45.176;5.714;2023-04-15T01:49:08;14.30;73.60
10121;DHT22;5100;45.176;5.714;2023-04-15T01:51:34;14.30;73.70
10121;DHT22;5100;45.176;5.714;2023-04-15T01:54:00;14.30;73.80
10121;DHT22;5100;45.176;5.714;2023-04-15T01:56:26;14.30;73.90
10121;DHT22;5100;45.176;5.714;2023-04-15T01:58:52;14.30;74.10
10121;DHT22;5100;45.176;5.714;2023-04-15T02:01:19;14.30;74.10
10121;DHT22;5100;45.176;5.714;2023-04-15T02:03:46;14.20;74.00
10121;DHT22;5100;45.176;5.714;2023-04-15T02:06:14;14.20;74.10
10121;DHT22;5100;45.176;5.714;2023-04-15T02:08:40;14.20;74.10
10121;DHT22;5100;45.176;5.714;2023-04-15T02:11:07;14.20;74.10
10121;DHT22;5100;45.176;5.714;2023-04-15T02:13:33;14.20;74.10
10121;DHT22;5100;45.176;5.714;2023-04-15T02:15:59;14.20;74.10
10121;DHT22;5100;45.176;5.714;2023-04-15T02:18:25;14.20;74.20
10121;DHT22;5100;45.176;5.714;2023-04-15T02:20:52;14.20;74.20
10121;DHT22;5100;45.176;5.714;2023-04-15T02:23:18;14.20;74.20
10121;DHT22;5100;45.176;5.714;2023-04-15T02:25:44;14.20;74.30
10121;DHT22;5100;45.176;5.714;2023-04-15T02:28:10;14.20;74.30
10121;DHT22;5100;45.176;5.714;2023-04-15T02:30:36;14.20;74.40
10121;DHT22;5100;45.176;5.714;2023-04-15T02:33:02;14.20;74.50
10121;DHT22;5100;45.176;5.714;2023-04-15T02:35:28;14.20;74.50
10121;DHT22;5100;45.176;5.714;2023-04-15T02:37:56;14.10;74.40
10121;DHT22;5100;45.176;5.714;2023-04-15T02:40:22;14.20;74.30
10121;DHT22;5100;45.176;5.714;2023-04-15T02:42:48;14.10;74.10
10121;DHT22;5100;45.176;5.714;2023-04-15T02:45:15;14.20;74.00
10121;DHT22;5100;45.176;5.714;2023-04-15T02:47:41;14.10;74.00
10121;DHT22;5100;45.176;5.714;2023-04-15T02:50:09;14.10;74.10
10121;DHT22;5100;45.176;5.714;2023-04-15T02:52:41;14.10;74.10
10121;DHT22;5100;45.176;5.714;2023-04-15T02:55:08;14.10;74.10
10121;DHT22;5100;45.176;5.714;2023-04-15T02:57:35;14.10;74.00
10121;DHT22;5100;45.176;5.714;2023-04-15T03:00:05;14.10;74.10
10121;DHT22;5100;45.176;5.714;2023-04-15T03:02:35;14.10;74.10
10121;DHT22;5100;45.176;5.714;2023-04-15T03:05:03;14.10;74.10
10121;DHT22;5100;45.176;5.714;2023-04-15T03:07:31;14.10;74.10
10121;DHT22;5100;45.176;5.714;2023-04-15T03:09:57;14.10;74.00
10121;DHT22;5100;45.176;5.714;2023-04-15T03:12:24;14.10;74.00
10121;DHT22;5100;45.176;5.714;2023-04-15T03:14:52;14.10;74.10
10121;DHT22;5100;45.176;5.714;2023-04-15T03:17:21;14.10;74.20
10121;DHT22;5100;45.176;5.714;2023-04-15T03:19:48;14.10;74.00
10121;DHT22;5100;45.176;5.714;2023-04-15T03:22:14;14.10;74.10
10121;DHT22;5100;45.176;5.714;2023-04-15T03:24:40;14.10;74.20
10121;DHT22;5100;45.176;5.714;2023-04-15T03:27:06;14.10;74.30
10121;DHT22;5100;45.176;5.714;2023-04-15T03:29:34;14.10;74.30
10121;DHT22;5100;45.176;5.714;2023-04-15T03:32:00;14.10;74.30
10121;DHT22;5100;45.176;5.714;2023-04-15T03:34:29;14.10;74.10
10121;DHT22;5100;45.176;5.714;2023-04-15T03:36:55;14.10;74.00
10121;DHT22;5100;45.176;5.714;2023-04-15T03:39:21;14.10;74.00
10121;DHT22;5100;45.176;5.714;2023-04-15T03:41:47;14.10;74.00
10121;DHT22;5100;45.176;5.714;2023-04-15T03:44:14;14.10;74.10
10121;DHT22;5100;45.176;5.714;2023-04-15T03:46:40;14.10;74.20
10121;DHT22;5100;45.176;5.714;2023-04-15T03:49:06;14.10;74.20
10121;DHT22;5100;45.176;5.714;2023-04-15T03:51:33;14.10;74.20
10121;DHT22;5100;45.176;5.714;2023-04-15T03:53:59;14.10;74.20
10121;DHT22;5100;45.176;5.714;2023-04-15T03:56:25;14.10;74.20
10121;DHT22;5100;45.176;5.714;2023-04-15T03:58:52;14.10;74.30
10121;DHT22;5100;45.176;5.714;2023-04-15T04:01:18;14.10;74.20
10121;DHT22;5100;45.176;5.714;2023-04-15T04:03:44;14.00;74.10
10121;DHT22;5100;45.176;5.714;2023-04-15T04:06:11;14.10;74.10
10121;DHT22;5100;45.176;5.714;2023-04-15T04:08:37;14.00;74.10
10121;DHT22;5100;45.176;5.714;2023-04-15T04:11:04;14.00;74.20
10121;DHT22;5100;45.176;5.714;2023-04-15T04:13:30;14.10;74.30
10121;DHT22;5100;45.176;5.714;2023-04-15T04:15:56;14.00;74.10
10121;DHT22;5100;45.176;5.714;2023-04-15T04:18:22;14.00;74.20
10121;DHT22;5100;45.176;5.714;2023-04-15T04:20:48;14.00;74.30
10121;DHT22;5100;45.176;5.714;2023-04-15T04:23:15;14.00;74.30
10121;DHT22;5100;45.176;5.714;2023-04-15T04:25:41;14.10;74.30
10121;DHT22;5100;45.176;5.714;2023-04-15T04:28:07;14.00;74.50
10121;DHT22;5100;45.176;5.714;2023-04-15T04:30:34;14.00;74.50
10121;DHT22;5100;45.176;5.714;2023-04-15T04:33:01;14.00;74.50
10121;DHT22;5100;45.176;5.714;2023-04-15T04:35:27;14.00;74.50
10121;DHT22;5100;45.176;5.714;2023-04-15T04:37:53;14.00;74.60
10121;DHT22;5100;45.176;5.714;2023-04-15T04:40:19;14.00;74.50
10121;DHT22;5100;45.176;5.714;2023-04-15T04:42:46;14.00;74.40
10121;DHT22;5100;45.176;5.714;2023-04-15T04:45:12;14.00;74.40
10121;DHT22;5100;45.176;5.714;2023-04-15T04:47:38;14.00;74.40
10121;DHT22;5100;45.176;5.714;2023-04-15T04:50:05;14.00;74.30
10121;DHT22;5100;45.176;5.714;2023-04-15T04:52:31;14.00;74.30
10121;DHT22;5100;45.176;5.714;2023-04-15T04:54:58;14.00;74.40
10121;DHT22;5100;45.176;5.714;2023-04-15T04:57:24;14.00;74.50
10121;DHT22;5100;45.176;5.714;2023-04-15T04:59:50;14.00;74.50
10121;DHT22;5100;45.176;5.714;2023-04-15T05:02:16;14.00;74.50
10121;DHT22;5100;45.176;5.714;2023-04-15T05:04:42;14.00;74.50
10121;DHT22;5100;45.176;5.714;2023-04-15T05:07:08;14.00;74.50
10121;DHT22;5100;45.176;5.714;2023-04-15T05:09:34;14.00;74.60
10121;DHT22;5100;45.176;5.714;2023-04-15T05:12:02;13.90;74.70
10121;DHT22;5100;45.176;5.714;2023-04-15T05:14:29;14.00;74.60
10121;DHT22;5100;45.176;5.714;2023-04-15T05:16:55;13.90;74.60
10121;DHT22;5100;45.176;5.714;2023-04-15T05:19:21;14.00;74.50
10121;DHT22;5100;45.176;5.714;2023-04-15T05:21:47;13.90;74.50
10121;DHT22;5100;45.176;5.714;2023-04-15T05:24:14;13.90;74.50
10121;DHT22;5100;45.176;5.714;2023-04-15T05:26:39;13.90;74.50
10121;DHT22;5100;45.176;5.714;2023-04-15T05:29:05;13.90;74.30
10121;DHT22;5100;45.176;5.714;2023-04-15T05:31:32;13.90;74.10
10121;DHT22;5100;45.176;5.714;2023-04-15T05:33:58;13.90;73.90
10121;DHT22;5100;45.176;5.714;2023-04-15T05:36:24;13.90;74.10
10121;DHT22;5100;45.176;5.714;2023-04-15T05:38:50;13.90;74.30
10121;DHT22;5100;45.176;5.714;2023-04-15T05:41:16;13.90;74.40
10121;DHT22;5100;45.176;5.714;2023-04-15T05:43:42;13.90;74.60
10121;DHT22;5100;45.176;5.714;2023-04-15T05:46:09;13.90;74.60
10121;DHT22;5100;45.176;5.714;2023-04-15T05:48:35;13.90;74.90
10121;DHT22;5100;45.176;5.714;2023-04-15T05:51:01;13.90;75.00
10121;DHT22;5100;45.176;5.714;2023-04-15T05:53:27;13.90;75.00
10121;DHT22;5100;45.176;5.714;2023-04-15T05:55:53;13.90;75.10
10121;DHT22;5100;45.176;5.714;2023-04-15T05:58:19;13.90;75.20
10121;DHT22;5100;45.176;5.714;2023-04-15T06:00:46;13.90;75.10
10121;DHT22;5100;45.176;5.714;2023-04-15T06:03:12;13.90;75.20
10121;DHT22;5100;45.176;5.714;2023-04-15T06:05:38;13.90;75.20
10121;DHT22;5100;45.176;5.714;2023-04-15T06:08:05;13.90;75.20
10121;DHT22;5100;45.176;5.714;2023-04-15T06:10:32;13.90;75.30
10121;DHT22;5100;45.176;5.714;2023-04-15T06:13:02;13.90;75.20
10121;DHT22;5100;45.176;5.714;2023-04-15T06:15:29;13.90;75.30
10121;DHT22;5100;45.176;5.714;2023-04-15T06:17:55;13.90;75.20
10121;DHT22;5100;45.176;5.714;2023-04-15T06:20:21;13.90;75.10
10121;DHT22;5100;45.176;5.714;2023-04-15T06:22:47;13.90;75.00
10121;DHT22;5100;45.176;5.714;2023-04-15T06:25:13;14.00;75.20
10121;DHT22;5100;45.176;5.714;2023-04-15T06:27:39;14.00;75.30
10121;DHT22;5100;45.176;5.714;2023-04-15T06:30:05;14.00;75.20
10121;DHT22;5100;45.176;5.714;2023-04-15T06:32:32;14.00;75.00
10121;DHT22;5100;45.176;5.714;2023-04-15T06:34:59;14.00;75.00
10121;DHT22;5100;45.176;5.714;2023-04-15T06:37:25;14.00;75.10
10121;DHT22;5100;45.176;5.714;2023-04-15T06:39:51;14.00;75.10
10121;DHT22;5100;45.176;5.714;2023-04-15T06:42:17;14.00;75.20
10121;DHT22;5100;45.176;5.714;2023-04-15T06:44:43;14.00;75.20
10121;DHT22;5100;45.176;5.714;2023-04-15T06:47:09;14.00;75.10
10121;DHT22;5100;45.176;5.714;2023-04-15T06:49:37;14.00;74.90
10121;DHT22;5100;45.176;5.714;2023-04-15T06:52:05;14.00;74.90
10121;DHT22;5100;45.176;5.714;2023-04-15T06:54:31;14.10;74.90
10121;DHT22;5100;45.176;5.714;2023-04-15T06:56:57;14.00;74.80
10121;DHT22;5100;45.176;5.714;2023-04-15T06:59:23;14.10;74.90
10121;DHT22;5100;45.176;5.714;2023-04-15T07:01:50;14.10;74.80
10121;DHT22;5100;45.176;5.714;2023-04-15T07:04:16;14.10;74.50
10121;DHT22;5100;45.176;5.714;2023-04-15T07:06:42;14.10;74.40
10121;DHT22;5100;45.176;5.714;2023-04-15T07:09:09;14.10;74.50
10121;DHT22;5100;45.176;5.714;2023-04-15T07:11:35;14.10;74.40
10121;DHT22;5100;45.176;5.714;2023-04-15T07:14:03;14.20;74.10
10121;DHT22;5100;45.176;5.714;2023-04-15T07:16:30;14.20;73.70
10121;DHT22;5100;45.176;5.714;2023-04-15T07:18:56;14.20;73.80
10121;DHT22;5100;45.176;5.714;2023-04-15T07:21:23;14.20;74.00
10121;DHT22;5100;45.176;5.714;2023-04-15T07:23:49;14.20;74.00
10121;DHT22;5100;45.176;5.714;2023-04-15T07:26:17;14.20;73.90
10121;DHT22;5100;45.176;5.714;2023-04-15T07:28:43;14.20;74.10
10121;DHT22;5100;45.176;5.714;2023-04-15T07:31:11;14.20;74.30
10121;DHT22;5100;45.176;5.714;2023-04-15T07:33:37;14.20;74.50
10121;DHT22;5100;45.176;5.714;2023-04-15T07:36:03;14.30;74.70
10121;DHT22;5100;45.176;5.714;2023-04-15T07:38:30;14.30;74.80
10121;DHT22;5100;45.176;5.714;2023-04-15T07:40:56;14.30;74.60
10121;DHT22;5100;45.176;5.714;2023-04-15T07:43:22;14.30;74.30
10121;DHT22;5100;45.176;5.714;2023-04-15T07:45:49;14.40;74.10
10121;DHT22;5100;45.176;5.714;2023-04-15T07:48:15;14.50;74.00
10121;DHT22;5100;45.176;5.714;2023-04-15T07:50:41;14.50;73.70
10121;DHT22;5100;45.176;5.714;2023-04-15T07:53:08;14.50;73.40
10121;DHT22;5100;45.176;5.714;2023-04-15T07:55:34;14.60;73.50
10121;DHT22;5100;45.176;5.714;2023-04-15T07:58:00;14.60;73.90
10121;DHT22;5100;45.176;5.714;2023-04-15T08:00:26;14.60;73.90
10121;DHT22;5100;45.176;5.714;2023-04-15T08:02:53;14.60;73.60
10121;DHT22;5100;45.176;5.714;2023-04-15T08:05:19;14.60;73.20
10121;DHT22;5100;45.176;5.714;2023-04-15T08:07:45;14.50;71.90
10121;DHT22;5100;45.176;5.714;2023-04-15T08:10:11;14.50;70.90
10121;DHT22;5100;45.176;5.714;2023-04-15T08:12:37;14.40;69.90
10121;DHT22;5100;45.176;5.714;2023-04-15T08:15:04;14.40;68.70
10121;DHT22;5100;45.176;5.714;2023-04-15T08:17:30;14.30;67.50
10121;DHT22;5100;45.176;5.714;2023-04-15T08:19:56;14.30;67.40
10121;DHT22;5100;45.176;5.714;2023-04-15T08:22:22;14.30;67.70
10121;DHT22;5100;45.176;5.714;2023-04-15T08:24:49;14.30;67.90
10121;DHT22;5100;45.176;5.714;2023-04-15T08:27:16;14.20;67.90
10121;DHT22;5100;45.176;5.714;2023-04-15T08:29:42;14.20;67.70
10121;DHT22;5100;45.176;5.714;2023-04-15T08:32:08;14.20;67.20
10121;DHT22;5100;45.176;5.714;2023-04-15T08:34:34;14.20;67.20
10121;DHT22;5100;45.176;5.714;2023-04-15T08:37:00;14.20;67.00
10121;DHT22;5100;45.176;5.714;2023-04-15T08:39:26;14.20;66.90
10121;DHT22;5100;45.176;5.714;2023-04-15T08:42:00;14.20;66.50
10121;DHT22;5100;45.176;5.714;2023-04-15T08:44:29;14.20;66.40
10121;DHT22;5100;45.176;5.714;2023-04-15T08:47:00;14.20;66.60
10121;DHT22;5100;45.176;5.714;2023-04-15T08:49:26;14.30;66.70
10121;DHT22;5100;45.176;5.714;2023-04-15T08:51:54;14.30;66.80
10121;DHT22;5100;45.176;5.714;2023-04-15T08:54:21;14.40;66.60
10121;DHT22;5100;45.176;5.714;2023-04-15T08:56:47;14.40;66.60
10121;DHT22;5100;45.176;5.714;2023-04-15T08:59:14;14.50;66.70
10121;DHT22;5100;45.176;5.714;2023-04-15T09:01:41;14.50;66.40
10121;DHT22;5100;45.176;5.714;2023-04-15T09:04:07;14.60;65.90
10121;DHT22;5100;45.176;5.714;2023-04-15T09:06:34;14.60;66.00
10121;DHT22;5100;45.176;5.714;2023-04-15T09:09:00;14.70;65.80
10121;DHT22;5100;45.176;5.714;2023-04-15T09:11:26;14.70;65.00
10121;DHT22;5100;45.176;5.714;2023-04-15T09:13:52;14.80;63.90
10121;DHT22;5100;45.176;5.714;2023-04-15T09:16:18;14.80;63.60
10121;DHT22;5100;45.176;5.714;2023-04-15T09:18:45;14.80;63.20
10121;DHT22;5100;45.176;5.714;2023-04-15T09:21:13;14.90;62.60
10121;DHT22;5100;45.176;5.714;2023-04-15T09:23:53;14.90;61.50
10121;DHT22;5100;45.176;5.714;2023-04-15T09:26:32;14.90;62.00
10121;DHT22;5100;45.176;5.714;2023-04-15T09:29:06;14.90;61.60
10121;DHT22;5100;45.176;5.714;2023-04-15T09:31:33;14.90;61.30
10121;DHT22;5100;45.176;5.714;2023-04-15T09:33:59;15.00;61.70
10121;DHT22;5100;45.176;5.714;2023-04-15T09:36:25;15.00;61.80
10121;DHT22;5100;45.176;5.714;2023-04-15T09:38:59;15.00;61.80
10121;DHT22;5100;45.176;5.714;2023-04-15T09:41:25;15.10;61.90
10121;DHT22;5100;45.176;5.714;2023-04-15T09:43:52;15.20;61.70
10121;DHT22;5100;45.176;5.714;2023-04-15T09:46:18;15.20;61.70
10121;DHT22;5100;45.176;5.714;2023-04-15T09:48:45;15.30;61.90
10121;DHT22;5100;45.176;5.714;2023-04-15T09:51:11;15.40;61.30
10121;DHT22;5100;45.176;5.714;2023-04-15T09:53:37;15.40;61.20
10121;DHT22;5100;45.176;5.714;2023-04-15T09:56:04;15.40;61.00
10121;DHT22;5100;45.176;5.714;2023-04-15T09:58:33;15.50;61.20
10121;DHT22;5100;45.176;5.714;2023-04-15T10:01:03;15.50;62.40
10121;DHT22;5100;45.176;5.714;2023-04-15T10:03:34;15.50;64.40
10121;DHT22;5100;45.176;5.714;2023-04-15T10:06:02;15.50;65.40
10121;DHT22;5100;45.176;5.714;2023-04-15T10:08:32;15.30;66.30
10121;DHT22;5100;45.176;5.714;2023-04-15T10:11:01;15.20;66.60
10121;DHT22;5100;45.176;5.714;2023-04-15T10:13:29;15.10;67.20
10121;DHT22;5100;45.176;5.714;2023-04-15T10:16:06;15.00;67.40
10121;DHT22;5100;45.176;5.714;2023-04-15T10:18:37;15.00;67.20
10121;DHT22;5100;45.176;5.714;2023-04-15T10:21:04;14.90;66.80
10121;DHT22;5100;45.176;5.714;2023-04-15T10:23:31;14.70;67.00
10121;DHT22;5100;45.176;5.714;2023-04-15T10:25:58;14.70;67.40
10121;DHT22;5100;45.176;5.714;2023-04-15T10:28:25;14.60;67.80
10121;DHT22;5100;45.176;5.714;2023-04-15T10:30:52;14.50;68.00
10121;DHT22;5100;45.176;5.714;2023-04-15T10:33:23;14.50;68.10
10121;DHT22;5100;45.176;5.714;2023-04-15T10:35:50;14.50;68.30
10121;DHT22;5100;45.176;5.714;2023-04-15T10:41:25;14.40;68.10
10121;DHT22;5100;45.176;5.714;2023-04-15T10:44:01;14.40;68.00
10121;DHT22;5100;45.176;5.714;2023-04-15T10:46:35;14.40;67.90
10121;DHT22;5100;45.176;5.714;2023-04-15T10:49:14;14.40;68.00
10121;DHT22;5100;45.176;5.714;2023-04-15T10:51:46;14.50;67.90
10121;DHT22;5100;45.176;5.714;2023-04-15T10:57:08;14.50;67.30
10121;DHT22;5100;45.176;5.714;2023-04-15T10:59:38;14.50;67.40
10121;DHT22;5100;45.176;5.714;2023-04-15T11:02:06;14.60;67.00
10121;DHT22;5100;45.176;5.714;2023-04-15T11:15:46;14.80;65.90
10121;DHT22;5100;45.176;5.714;2023-04-15T11:18:27;14.90;65.90
10121;DHT22;5100;45.176;5.714;2023-04-15T11:20:55;15.00;65.50
10121;DHT22;5100;45.176;5.714;2023-04-15T11:23:35;15.10;65.50
10121;DHT22;5100;45.176;5.714;2023-04-15T11:26:03;15.20;65.10
10121;DHT22;5100;45.176;5.714;2023-04-15T11:28:42;15.20;65.00
10121;DHT22;5100;45.176;5.714;2023-04-15T11:31:14;15.20;64.60
10121;DHT22;5100;45.176;5.714;2023-04-15T11:33:54;15.30;64.50
10121;DHT22;5100;45.176;5.714;2023-04-15T11:36:26;15.30;64.70
10121;DHT22;5100;45.176;5.714;2023-04-15T11:38:53;15.30;64.10
10121;DHT22;5100;45.176;5.714;2023-04-15T11:41:20;15.30;64.30
10121;DHT22;5100;45.176;5.714;2023-04-15T11:43:47;15.30;64.50
10121;DHT22;5100;45.176;5.714;2023-04-15T11:46:13;15.30;64.50
10121;DHT22;5100;45.176;5.714;2023-04-15T11:48:42;15.20;64.10
10121;DHT22;5100;45.176;5.714;2023-04-15T11:51:10;15.20;65.00
10121;DHT22;5100;45.176;5.714;2023-04-15T11:53:45;15.10;66.20
10121;DHT22;5100;45.176;5.714;2023-04-15T11:56:23;15.10;66.50
10121;DHT22;5100;45.176;5.714;2023-04-15T11:58:54;14.90;66.60
10121;DHT22;5100;45.176;5.714;2023-04-15T12:01:34;14.80;66.80
10121;DHT22;5100;45.176;5.714;2023-04-15T12:04:01;14.60;67.00
10121;DHT22;5100;45.176;5.714;2023-04-15T12:06:32;14.40;67.20
10121;DHT22;5100;45.176;5.714;2023-04-15T12:09:17;14.30;67.70
10121;DHT22;5100;45.176;5.714;2023-04-15T12:14:32;14.00;68.70
10121;DHT22;5100;45.176;5.714;2023-04-15T12:17:00;13.80;68.90
10121;DHT22;5100;45.176;5.714;2023-04-15T12:19:39;13.70;69.30
10121;DHT22;5100;45.176;5.714;2023-04-15T12:22:10;13.60;69.90
10121;DHT22;5100;45.176;5.714;2023-04-15T12:24:37;13.60;70.20
10121;DHT22;5100;45.176;5.714;2023-04-15T12:27:08;13.50;70.50
10121;DHT22;5100;45.176;5.714;2023-04-15T12:29:36;13.50;70.80
10121;DHT22;5100;45.176;5.714;2023-04-15T12:32:05;13.40;71.00
10121;DHT22;5100;45.176;5.714;2023-04-15T12:34:55;13.40;71.20
10121;DHT22;5100;45.176;5.714;2023-04-15T12:37:21;13.40;71.30
10121;DHT22;5100;45.176;5.714;2023-04-15T12:39:48;13.40;71.30
10121;DHT22;5100;45.176;5.714;2023-04-15T12:42:16;13.40;71.40
10121;DHT22;5100;45.176;5.714;2023-04-15T12:44:43;13.40;71.40
10121;DHT22;5100;45.176;5.714;2023-04-15T12:47:10;13.50;71.40
10121;DHT22;5100;45.176;5.714;2023-04-15T12:49:36;13.50;71.60
10121;DHT22;5100;45.176;5.714;2023-04-15T12:52:03;13.50;72.10
10121;DHT22;5100;45.176;5.714;2023-04-15T12:54:30;13.50;72.10
10121;DHT22;5100;45.176;5.714;2023-04-15T12:56:56;13.60;71.40
10121;DHT22;5100;45.176;5.714;2023-04-15T12:59:23;13.60;71.30
10121;DHT22;5100;45.176;5.714;2023-04-15T13:01:50;13.60;71.40
10121;DHT22;5100;45.176;5.714;2023-04-15T13:04:17;13.70;71.40
10121;DHT22;5100;45.176;5.714;2023-04-15T13:06:44;13.70;71.30
10121;DHT22;5100;45.176;5.714;2023-04-15T13:09:10;13.80;71.40
10121;DHT22;5100;45.176;5.714;2023-04-15T13:11:36;13.80;71.30
10121;DHT22;5100;45.176;5.714;2023-04-15T13:14:03;13.80;71.00
10121;DHT22;5100;45.176;5.714;2023-04-15T13:16:31;13.90;71.20
10121;DHT22;5100;45.176;5.714;2023-04-15T13:19:01;13.90;71.20
10121;DHT22;5100;45.176;5.714;2023-04-15T13:21:29;13.90;71.10
10121;DHT22;5100;45.176;5.714;2023-04-15T13:23:56;13.90;71.20
10121;DHT22;5100;45.176;5.714;2023-04-15T13:26:22;14.00;71.10
10121;DHT22;5100;45.176;5.714;2023-04-15T13:28:49;14.00;71.30
10121;DHT22;5100;45.176;5.714;2023-04-15T13:31:15;14.00;71.10
10121;DHT22;5100;45.176;5.714;2023-04-15T13:33:40;14.00;71.00
10121;DHT22;5100;45.176;5.714;2023-04-15T13:36:07;14.00;71.20
10121;DHT22;5100;45.176;5.714;2023-04-15T13:38:33;14.00;71.40
10121;DHT22;5100;45.176;5.714;2023-04-15T13:40:59;14.00;71.40
10121;DHT22;5100;45.176;5.714;2023-04-15T13:43:25;13.90;71.10
10121;DHT22;5100;45.176;5.714;2023-04-15T13:45:51;13.90;71.10
10121;DHT22;5100;45.176;5.714;2023-04-15T13:48:17;13.90;71.00
10121;DHT22;5100;45.176;5.714;2023-04-15T13:50:44;13.90;71.00
10121;DHT22;5100;45.176;5.714;2023-04-15T13:53:13;13.90;71.20
10121;DHT22;5100;45.176;5.714;2023-04-15T13:55:39;13.90;71.30
10121;DHT22;5100;45.176;5.714;2023-04-15T13:58:10;13.80;71.20
10121;DHT22;5100;45.176;5.714;2023-04-15T14:00:36;13.80;71.70
10121;DHT22;5100;45.176;5.714;2023-04-15T14:03:03;13.80;71.90
10121;DHT22;5100;45.176;5.714;2023-04-15T14:05:29;13.70;71.90
10121;DHT22;5100;45.176;5.714;2023-04-15T14:07:55;13.70;71.70
10121;DHT22;5100;45.176;5.714;2023-04-15T14:10:22;13.70;71.30
10121;DHT22;5100;45.176;5.714;2023-04-15T14:12:48;13.70;71.20
10121;DHT22;5100;45.176;5.714;2023-04-15T14:15:14;13.60;71.30
10121;DHT22;5100;45.176;5.714;2023-04-15T14:17:41;13.60;71.40
10121;DHT22;5100;45.176;5.714;2023-04-15T14:20:08;13.60;71.50
10121;DHT22;5100;45.176;5.714;2023-04-15T14:22:34;13.50;71.90
10121;DHT22;5100;45.176;5.714;2023-04-15T14:25:02;13.50;72.10
10121;DHT22;5100;45.176;5.714;2023-04-15T14:27:29;13.50;72.50
10121;DHT22;5100;45.176;5.714;2023-04-15T14:29:55;13.50;72.70
10121;DHT22;5100;45.176;5.714;2023-04-15T14:32:24;13.50;72.90
10121;DHT22;5100;45.176;5.714;2023-04-15T14:34:50;13.50;73.10
10121;DHT22;5100;45.176;5.714;2023-04-15T14:37:16;13.50;73.20
10121;DHT22;5100;45.176;5.714;2023-04-15T14:39:42;13.50;73.10
10121;DHT22;5100;45.176;5.714;2023-04-15T14:42:08;13.40;73.40
10121;DHT22;5100;45.176;5.714;2023-04-15T14:44:34;13.40;73.10
10121;DHT22;5100;45.176;5.714;2023-04-15T14:47:01;13.40;73.00
10121;DHT22;5100;45.176;5.714;2023-04-15T14:49:26;13.40;73.00
10121;DHT22;5100;45.176;5.714;2023-04-15T14:51:53;13.40;73.10
10121;DHT22;5100;45.176;5.714;2023-04-15T14:54:19;13.40;73.20
10121;DHT22;5100;45.176;5.714;2023-04-15T14:56:45;13.40;73.40
10121;DHT22;5100;45.176;5.714;2023-04-15T14:59:11;13.40;73.40
10121;DHT22;5100;45.176;5.714;2023-04-15T15:01:37;13.40;73.30
10121;DHT22;5100;45.176;5.714;2023-04-15T15:04:04;13.30;73.20
10121;DHT22;5100;45.176;5.714;2023-04-15T15:06:30;13.30;73.40
10121;DHT22;5100;45.176;5.714;2023-04-15T15:08:56;13.30;73.50
10121;DHT22;5100;45.176;5.714;2023-04-15T15:11:22;13.30;73.60
10121;DHT22;5100;45.176;5.714;2023-04-15T15:13:48;13.30;73.60
10121;DHT22;5100;45.176;5.714;2023-04-15T15:16:15;13.30;73.50
10121;DHT22;5100;45.176;5.714;2023-04-15T15:18:41;13.30;73.30
10121;DHT22;5100;45.176;5.714;2023-04-15T15:21:07;13.30;73.10
10121;DHT22;5100;45.176;5.714;2023-04-15T15:23:33;13.30;72.90
10121;DHT22;5100;45.176;5.714;2023-04-15T15:25:59;13.30;72.90
10121;DHT22;5100;45.176;5.714;2023-04-15T15:28:25;13.40;72.90
10121;DHT22;5100;45.176;5.714;2023-04-15T15:30:52;13.40;73.10
10121;DHT22;5100;45.176;5.714;2023-04-15T15:33:18;13.40;73.10
10121;DHT22;5100;45.176;5.714;2023-04-15T15:35:45;13.40;73.20
10121;DHT22;5100;45.176;5.714;2023-04-15T15:38:12;13.50;73.10
10121;DHT22;5100;45.176;5.714;2023-04-15T15:40:38;13.50;73.00
10121;DHT22;5100;45.176;5.714;2023-04-15T15:43:04;13.50;73.10
10121;DHT22;5100;45.176;5.714;2023-04-15T15:45:30;13.50;73.10
10121;DHT22;5100;45.176;5.714;2023-04-15T15:47:56;13.50;73.00
10121;DHT22;5100;45.176;5.714;2023-04-15T15:50:23;13.50;73.30
10121;DHT22;5100;45.176;5.714;2023-04-15T15:52:50;13.50;73.40
10121;DHT22;5100;45.176;5.714;2023-04-15T15:55:16;13.50;73.50
10121;DHT22;5100;45.176;5.714;2023-04-15T15:57:42;13.50;73.40
10121;DHT22;5100;45.176;5.714;2023-04-15T16:00:09;13.50;73.40
10121;DHT22;5100;45.176;5.714;2023-04-15T16:02:36;13.50;73.70
10121;DHT22;5100;45.176;5.714;2023-04-15T16:05:02;13.50;73.70